Time;durP1;ratioP1;P1;durP2;ratioP2;P2;SDS_P1;SDS_P2;PMS_P1;PMS_P2;Temp;Humidity;BMP_temperature;BMP_pressure;BME280_temperature;BME280_humidity;BME280_pressure;Samples;Min_cycle;Max_cycle;Signal;HPM_P1;HPM_P2
2022/06/13 00:02:07;;;;;;;;;;;;;;;19.80;100.00;98803.53;4240925;33;19950;-76
2022/06/13 00:04:34;;;;;;;;;;;;;;;19.75;100.00;98808.00;4229332;33;20234;-76
2022/06/13 00:07:01;;;;;;;;;;;;;;;19.70;100.00;98802.66;4239679;33;19941;-75
2022/06/13 00:09:27;;;;;;;;;;;;;;;19.74;100.00;98802.84;4242138;33;20325;-76
2022/06/13 00:11:54;;;;;;;;;;;;;;;19.72;100.00;98803.16;4241789;33;19937;-76
2022/06/13 00:14:20;;;;;;;;;;;;;;;19.74;100.00;98802.84;4241643;33;19952;-75
2022/06/13 00:16:46;;;;;;;;;;;;;;;19.72;100.00;98813.25;4239556;33;19952;-75
2022/06/13 00:19:13;;;;;;;;;;;;;;;19.59;100.00;98824.00;4241213;33;19934;-76
2022/06/13 00:21:39;;;;;;;;;;;;;;;19.64;100.00;98822.22;4241356;33;19993;-75
2022/06/13 00:24:07;;;;;;;;;;;;;;;19.65;100.00;98812.94;4242520;33;20284;-75
2022/06/13 00:26:35;;;;;;;;;;;;;;;19.57;100.00;98812.56;4241583;33;19979;-75
2022/06/13 00:29:02;;;;;;;;;;;;;;;19.55;100.00;98819.47;4240079;33;19950;-75
2022/06/13 00:31:28;;;;;;;;;;;;;;;19.50;100.00;98816.88;4228814;33;19962;-75
2022/06/13 00:33:54;;;;;;;;;;;;;;;19.35;100.00;98815.34;4241702;33;19937;-75
2022/06/13 00:36:23;;;;;;;;;;;;;;;19.29;100.00;98801.03;4241307;33;19937;-75
2022/06/13 00:38:49;;;;;;;;;;;;;;;19.27;100.00;98797.00;4241691;33;19949;-75
2022/06/13 00:41:18;;;;;;;;;;;;;;;19.19;100.00;98796.66;4238348;33;20362;-75
2022/06/13 00:43:45;;;;;;;;;;;;;;;19.16;100.00;98794.56;4241702;33;19954;-76
2022/06/13 00:46:15;;;;;;;;;;;;;;;19.13;100.00;98803.34;4228384;33;19938;-75
2022/06/13 00:48:42;;;;;;;;;;;;;;;19.10;100.00;98793.06;4228843;33;19941;-75
2022/06/13 00:51:09;;;;;;;;;;;;;;;19.08;100.00;98789.81;4239136;33;19938;-75
2022/06/13 00:53:35;;;;;;;;;;;;;;;19.03;100.00;98792.69;4241242;33;19933;-75
2022/06/13 00:56:08;;;;;;;;;;;;;;;19.00;100.00;98793.31;4241800;33;20354;-75
2022/06/13 00:58:37;;;;;;;;;;;;;;;18.96;100.00;98793.12;4240654;33;19955;-76
2022/06/13 01:01:04;;;;;;;;;;;;;;;18.82;100.00;98800.53;4240429;33;19965;-75
2022/06/13 01:03:32;;;;;;;;;;;;;;;18.66;100.00;98794.66;4228553;33;19989;-75
2022/06/13 01:06:00;;;;;;;;;;;;;;;18.49;100.00;98812.50;4241623;33;19941;-75
2022/06/13 01:08:28;;;;;;;;;;;;;;;18.28;100.00;98794.97;4241610;33;19937;-76
2022/06/13 01:13:58;;;;;;;;;;;;;;;18.17;100.00;98793.56;4241601;33;19949;-76
2022/06/13 01:16:33;;;;;;;;;;;;;;;18.01;100.00;98787.66;4241510;33;19952;-76
2022/06/13 01:19:18;;;;;;;;;;;;;;;17.94;100.00;98790.78;4239371;33;19985;-75
2022/06/13 01:22:02;;;;;;;;;;;;;;;17.86;100.00;98778.66;4241327;33;19937;-76
2022/06/13 01:24:47;;;;;;;;;;;;;;;17.86;100.00;98773.22;4240076;33;20268;-75
2022/06/13 01:27:13;;;;;;;;;;;;;;;17.87;100.00;98779.44;4241166;33;19948;-76
2022/06/13 01:29:43;;;;;;;;;;;;;;;17.75;100.00;98778.03;4241265;33;20256;-75
2022/06/13 01:32:28;;;;;;;;;;;;;;;17.73;100.00;98780.28;4239783;33;19951;-74
2022/06/13 01:35:06;;;;;;;;;;;;;;;17.71;100.00;98777.06;4241123;33;19951;-76
2022/06/13 01:37:36;;;;;;;;;;;;;;;17.70;100.00;98772.72;4240090;33;19967;-75
2022/06/13 01:40:03;;;;;;;;;;;;;;;17.90;100.00;98757.91;4239251;33;19941;-74
2022/06/13 01:42:45;;;;;;;;;;;;;;;17.95;100.00;98754.28;4240879;33;19989;-75
2022/06/13 01:45:12;;;;;;;;;;;;;;;17.99;100.00;98749.81;4240599;33;19963;-75
2022/06/13 01:47:38;;;;;;;;;;;;;;;17.99;100.00;98752.53;4239545;33;19968;-75
2022/06/13 01:50:12;;;;;;;;;;;;;;;17.95;100.00;98754.28;4240949;33;20102;-75
2022/06/13 01:53:02;;;;;;;;;;;;;;;17.89;100.00;98750.84;4241128;33;20238;-75
2022/06/13 01:55:46;;;;;;;;;;;;;;;17.96;100.00;98756.66;4226617;33;19944;-75
2022/06/13 01:58:13;;;;;;;;;;;;;;;18.08;100.00;98758.87;4240404;33;19945;-75
2022/06/13 02:00:43;;;;;;;;;;;;;;;18.14;100.00;98759.56;4240943;33;20314;-74
2022/06/13 02:03:12;;;;;;;;;;;;;;;18.27;100.00;98763.38;4239934;33;20359;-74
2022/06/13 02:05:44;;;;;;;;;;;;;;;18.21;100.00;98764.63;4227786;33;19938;-75
2022/06/13 02:08:15;;;;;;;;;;;;;;;18.19;100.00;98759.47;4241019;33;19937;-75
2022/06/13 02:11:08;;;;;;;;;;;;;;;18.29;100.00;98774.78;4241040;33;19951;-74
2022/06/13 02:13:45;;;;;;;;;;;;;;;18.34;100.00;98777.38;4231249;33;20098;-75
2022/06/13 02:16:15;;;;;;;;;;;;;;;18.30;100.00;98776.38;4240617;33;19938;-75
2022/06/13 02:18:47;;;;;;;;;;;;;;;18.26;100.00;98761.78;4242328;33;19938;-75
2022/06/13 02:21:14;;;;;;;;;;;;;;;18.32;100.00;98774.16;4243117;33;20578;-75
2022/06/13 02:23:44;;;;;;;;;;;;;;;18.37;100.00;98774.06;4243524;33;19937;-75
2022/06/13 02:26:13;;;;;;;;;;;;;;;18.38;100.00;98777.56;4242731;33;20260;-74
2022/06/13 02:28:43;;;;;;;;;;;;;;;18.39;100.00;98782.72;4242351;33;19979;-74
2022/06/13 02:31:13;;;;;;;;;;;;;;;18.29;100.00;98780.22;4243334;33;19957;-75
2022/06/13 02:33:52;;;;;;;;;;;;;;;18.21;100.00;98778.25;4243435;33;20011;-75
2022/06/13 02:36:22;;;;;;;;;;;;;;;18.34;100.00;98777.38;4242449;33;19933;-75
2022/06/13 02:38:53;;;;;;;;;;;;;;;18.38;100.00;98770.22;4242949;33;20309;-75
2022/06/13 02:41:22;;;;;;;;;;;;;;;18.23;100.00;98778.72;4243015;33;19954;-75
2022/06/13 02:43:58;;;;;;;;;;;;;;;18.29;100.00;98781.03;4243291;33;19955;-75
2022/06/13 02:46:28;;;;;;;;;;;;;;;18.22;100.00;98764.31;4228979;33;19941;-74
2022/06/13 02:49:07;;;;;;;;;;;;;;;18.23;100.00;98770.56;4242201;33;19963;-75
2022/06/13 02:51:39;;;;;;;;;;;;;;;18.27;100.00;98771.56;4242673;33;19942;-75
2022/06/13 02:54:11;;;;;;;;;;;;;;;18.23;100.00;98770.56;4241109;33;19938;-74
2022/06/13 02:59:51;;;;;;;;;;;;;;;18.03;100.00;98766.34;4240102;33;19942;-75
2022/06/13 03:02:21;;;;;;;;;;;;;;;17.91;100.00;98775.06;4244753;33;19948;-76
2022/06/13 03:05:10;;;;;;;;;;;;;;;17.96;100.00;98766.75;4243627;33;19937;-76
2022/06/13 03:07:40;;;;;;;;;;;;;;;18.04;100.00;98757.88;4216004;33;19967;-75
2022/06/13 03:10:10;;;;;;;;;;;;;;;17.71;100.00;98760.72;4230350;33;19938;-76
2022/06/13 03:12:41;;;;;;;;;;;;;;;17.64;100.00;98759.50;4242667;33;20292;-76
2022/06/13 03:15:14;;;;;;;;;;;;;;;17.78;100.00;98761.09;4241406;33;19942;-75
2022/06/13 03:17:47;;;;;;;;;;;;;;;17.86;100.00;98762.31;4242379;33;20350;-76
2022/06/13 03:20:16;;;;;;;;;;;;;;;17.67;100.00;98764.34;4230188;33;20256;-76
2022/06/13 03:22:42;;;;;;;;;;;;;;;17.82;100.00;98765.94;4242267;33;19934;-76
2022/06/13 03:25:18;;;;;;;;;;;;;;;17.82;100.00;98768.66;4240493;33;19951;-76
2022/06/13 03:27:49;;;;;;;;;;;;;;;17.88;100.00;98762.84;4242355;33;19971;-76
2022/06/13 03:30:20;;;;;;;;;;;;;;;18.01;100.00;98761.19;4240758;33;20331;-76
2022/06/13 03:35:39;;;;;;;;;;;;;;;18.01;100.00;98758.47;4241855;33;19949;-76
2022/06/13 03:38:08;;;;;;;;;;;;;;;18.02;100.00;98754.66;4242655;33;19934;-76
2022/06/13 03:40:37;;;;;;;;;;;;;;;17.93;100.00;98751.03;4241938;33;19975;-76
2022/06/13 03:43:08;;;;;;;;;;;;;;;17.94;100.00;98747.22;4232830;33;20308;-75
2022/06/13 03:45:38;;;;;;;;;;;;;;;17.99;100.00;98740.84;4242158;33;19987;-76
2022/06/13 03:48:09;;;;;;;;;;;;;;;17.96;100.00;98739.53;4242391;33;19937;-76
2022/06/13 03:50:41;;;;;;;;;;;;;;;17.83;100.00;98740.34;4242736;33;19979;-76
2022/06/13 03:53:27;;;;;;;;;;;;;;;17.87;100.00;98741.31;4227378;33;19948;-75
2022/06/13 03:56:00;;;;;;;;;;;;;;;17.86;100.00;98731.56;4213368;33;20020;-76
2022/06/13 03:58:35;;;;;;;;;;;;;;;17.93;100.00;98727.34;4241527;33;19975;-75
2022/06/13 04:01:02;;;;;;;;;;;;;;;17.79;100.00;98721.88;4241043;33;19945;-76
2022/06/13 04:03:28;;;;;;;;;;;;;;;17.67;100.00;98710.69;4242342;33;19938;-77
2022/06/13 04:05:59;;;;;;;;;;;;;;;17.70;100.00;98704.66;4241741;33;19946;-77
2022/06/13 04:08:27;;;;;;;;;;;;;;;17.73;100.00;98704.03;4240416;33;19963;-73
2022/06/13 04:11:06;;;;;;;;;;;;;;;17.75;100.00;98704.53;4241074;33;20069;-75
2022/06/13 04:13:41;;;;;;;;;;;;;;;17.74;100.00;98711.09;4241810;33;20320;-75
2022/06/13 04:16:16;;;;;;;;;;;;;;;17.93;100.00;98710.19;4242280;33;20279;-74
2022/06/13 04:18:49;;;;;;;;;;;;;;;17.92;100.00;98706.66;4241997;33;20865;-75
2022/06/13 04:21:21;;;;;;;;;;;;;;;18.04;100.00;98710.75;4241392;33;19934;-75
2022/06/13 04:24:09;;;;;;;;;;;;;;;18.05;100.00;98709.66;4241104;33;19945;-75
2022/06/13 04:26:39;;;;;;;;;;;;;;;17.97;100.00;98692.13;4241730;33;20314;-75
2022/06/13 04:29:24;;;;;;;;;;;;;;;18.12;100.00;98689.03;4241953;33;19937;-76
2022/06/13 04:31:53;;;;;;;;;;;;;;;18.09;100.00;98684.22;4226948;33;20008;-76
2022/06/13 04:34:23;;;;;;;;;;;;;;;18.18;100.00;98686.22;4229144;33;19948;-76
2022/06/13 04:36:49;;;;;;;;;;;;;;;18.10;100.00;98683.09;4241633;33;19949;-77
2022/06/13 04:39:18;;;;;;;;;;;;;;;18.17;100.00;98692.75;4240229;33;20321;-73
2022/06/13 04:41:45;;;;;;;;;;;;;;;18.28;100.00;98696.84;4227485;33;20260;-77
2022/06/13 04:44:14;;;;;;;;;;;;;;;18.47;100.00;98689.28;4240629;33;19952;-80
2022/06/13 04:46:42;;;;;;;;;;;;;;;18.65;100.00;98683.97;4241067;33;19991;-79
2022/06/13 04:49:29;;;;;;;;;;;;;;;18.63;100.00;98681.53;4240560;33;19942;-79
2022/06/13 04:51:56;;;;;;;;;;;;;;;18.75;100.00;98678.25;4241794;33;19987;-78
2022/06/13 04:54:28;;;;;;;;;;;;;;;18.47;100.00;98678.41;4241251;33;20285;-78
2022/06/13 04:56:59;;;;;;;;;;;;;;;18.52;100.00;98685.62;4240014;33;19938;-80
2022/06/13 04:59:26;;;;;;;;;;;;;;;18.69;100.00;98687.69;4238192;33;20337;-78
2022/06/13 05:01:53;;;;;;;;;;;;;;;18.71;100.00;98682.72;4228732;33;20711;-78
2022/06/13 05:04:20;;;;;;;;;;;;;;;18.80;100.00;98680.84;4241038;33;20276;-78
2022/06/13 05:06:50;;;;;;;;;;;;;;;18.83;100.00;98669.31;4240099;33;20325;-78
2022/06/13 05:09:25;;;;;;;;;;;;;;;18.92;100.00;98654.94;4238717;33;19952;-78
2022/06/13 05:12:10;;;;;;;;;;;;;;;18.90;100.00;98649.00;4240407;33;19950;-79
2022/06/13 05:14:51;;;;;;;;;;;;;;;18.93;100.00;98651.09;4241324;33;20290;-79
2022/06/13 05:17:24;;;;;;;;;;;;;;;18.95;100.00;98643.41;4241196;33;20005;-78
2022/06/13 05:20:00;;;;;;;;;;;;;;;18.96;100.00;98632.19;4241042;33;19942;-79
2022/06/13 05:22:35;;;;;;;;;;;;;;;18.88;100.00;98628.28;4238267;33;19942;-79
2022/06/13 05:25:05;;;;;;;;;;;;;;;18.94;100.00;98642.59;4228108;33;19992;-79
2022/06/13 05:27:31;;;;;;;;;;;;;;;19.07;100.00;98651.81;4240877;33;19968;-80
2022/06/13 05:29:57;;;;;;;;;;;;;;;19.24;100.00;98654.59;4228834;33;19933;-79
2022/06/13 05:32:23;;;;;;;;;;;;;;;19.18;100.00;98657.78;4240966;33;19951;-79
2022/06/13 05:34:51;;;;;;;;;;;;;;;19.22;100.00;98654.09;4239026;33;19956;-78
2022/06/13 05:37:17;;;;;;;;;;;;;;;19.23;100.00;98661.16;4240818;33;19949;-79
2022/06/13 05:39:44;;;;;;;;;;;;;;;19.35;100.00;98652.37;4228010;33;19930;-79
2022/06/13 05:42:12;;;;;;;;;;;;;;;19.55;100.00;98650.97;4239593;33;19960;-79
2022/06/13 05:44:38;;;;;;;;;;;;;;;19.65;100.00;98649.06;4226505;33;19953;-83
2022/06/13 05:47:06;;;;;;;;;;;;;;;19.48;100.00;98656.12;4236870;33;19942;-81
2022/06/13 05:49:33;;;;;;;;;;;;;;;19.51;100.00;98655.44;4230999;33;19945;-75
2022/06/13 05:51:59;;;;;;;;;;;;;;;19.39;100.00;98650.63;4238021;33;20440;-76
2022/06/13 05:54:25;;;;;;;;;;;;;;;19.41;100.00;98639.38;4243266;33;20332;-76
2022/06/13 05:56:52;;;;;;;;;;;;;;;19.20;100.00;98637.22;4227303;34;19986;-76
2022/06/13 05:59:18;;;;;;;;;;;;;;;19.41;100.00;98644.84;4227808;34;19960;-76
2022/06/13 06:01:44;;;;;;;;;;;;;;;19.24;100.00;98640.94;4229935;34;20013;-77
2022/06/13 06:04:10;;;;;;;;;;;;;;;19.19;100.00;98649.28;4230196;34;19942;-76
2022/06/13 06:06:37;;;;;;;;;;;;;;;19.43;100.00;98642.59;4229990;33;19976;-76
2022/06/13 06:09:05;;;;;;;;;;;;;;;19.44;100.00;98655.12;4234728;34;19960;-81
2022/06/13 06:11:32;;;;;;;;;;;;;;;19.33;100.00;98653.81;4235315;33;20377;-76
2022/06/13 06:13:58;;;;;;;;;;;;;;;19.47;100.00;98662.69;4242925;33;20158;-75
2022/06/13 06:16:25;;;;;;;;;;;;;;;19.00;100.00;98657.72;4231084;33;19940;-77
2022/06/13 06:18:52;;;;;;;;;;;;;;;19.24;100.00;98662.78;4230311;33;19978;-77
2022/06/13 06:21:18;;;;;;;;;;;;;;;19.21;100.00;98646.22;4241724;33;19964;-81
2022/06/13 06:23:44;;;;;;;;;;;;;;;19.21;100.00;98646.22;4243118;33;19964;-76
2022/06/13 06:26:12;;;;;;;;;;;;;;;19.08;100.00;98647.94;4241945;33;19956;-78
2022/06/13 06:28:38;;;;;;;;;;;;;;;19.24;100.00;98640.94;4228273;34;19934;-77
2022/06/13 06:31:05;;;;;;;;;;;;;;;19.23;100.00;98638.53;4216730;34;19997;-78
2022/06/13 06:33:32;;;;;;;;;;;;;;;19.27;100.00;98641.44;4239063;33;19977;-76
2022/06/13 06:35:58;;;;;;;;;;;;;;;19.48;100.00;98642.47;4242679;33;20319;-77
2022/06/13 06:38:25;;;;;;;;;;;;;;;19.42;100.00;98652.72;4242251;33;19955;-77
2022/06/13 06:40:52;;;;;;;;;;;;;;;19.48;100.00;98647.09;4241774;33;19977;-77
2022/06/13 06:43:19;;;;;;;;;;;;;;;19.50;100.00;98648.41;4241191;33;19952;-78
2022/06/13 06:45:45;;;;;;;;;;;;;;;19.46;100.00;98663.78;4242517;33;19964;-76
2022/06/13 06:48:15;;;;;;;;;;;;;;;19.47;100.00;98665.41;4242672;33;19948;-77
2022/06/13 06:50:43;;;;;;;;;;;;;;;19.57;100.00;98659.63;4230661;33;19973;-76
2022/06/13 06:53:11;;;;;;;;;;;;;;;19.20;100.00;98667.25;4242032;33;19938;-78
2022/06/13 07:01:10;;;;;;;;;;;;;;;19.14;100.00;98652.13;4240988;33;19949;-77
2022/06/13 07:03:36;;;;;;;;;;;;;;;19.42;100.00;98643.72;4242552;33;19991;-77
2022/06/13 07:06:02;;;;;;;;;;;;;;;19.24;100.00;98657.31;4228988;33;20808;-76
2022/06/13 07:08:29;;;;;;;;;;;;;;;19.28;100.00;98646.56;4234301;33;19951;-76
2022/06/13 07:11:53;;;;;;;;;;;;;;;19.15;100.00;98648.31;4227839;34;19952;-78
2022/06/13 07:13:45;;;;;;;;;;;;;;;19.16;100.00;98654.56;4235997;33;19956;-77
2022/06/13 07:16:12;;;;;;;;;;;;;;;19.08;100.00;98660.78;4229070;33;20319;-75
2022/06/13 07:18:38;;;;;;;;;;;;;;;19.05;100.00;98665.75;4226793;34;19952;-76
2022/06/13 07:21:04;;;;;;;;;;;;;;;19.05;100.00;98664.94;4227409;33;19997;-75
2022/06/13 07:23:31;;;;;;;;;;;;;;;18.92;100.00;98665.84;4237768;33;19958;-75
2022/06/13 07:25:57;;;;;;;;;;;;;;;19.01;100.00;98650.34;4242525;33;20358;-75
2022/06/13 07:28:23;;;;;;;;;;;;;;;18.99;100.00;98647.91;4235610;33;19942;-76
2022/06/13 07:30:49;;;;;;;;;;;;;;;18.98;100.00;98648.22;4234904;33;19951;-76
2022/06/13 07:33:15;;;;;;;;;;;;;;;18.78;100.00;98642.19;4240495;33;20179;-76
2022/06/13 07:35:41;;;;;;;;;;;;;;;18.56;100.00;98631.31;4240508;33;20564;-75
2022/06/13 07:38:18;;;;;;;;;;;;;;;18.36;100.00;98636.16;4240708;33;19959;-78
2022/06/13 07:40:49;;;;;;;;;;;;;;;18.54;100.00;98661.63;4239460;33;19968;-76
2022/06/13 07:43:26;;;;;;;;;;;;;;;18.65;100.00;98656.69;4238513;33;19975;-76
2022/06/13 07:45:52;;;;;;;;;;;;;;;18.68;100.00;98650.63;4233978;33;19961;-76
2022/06/13 07:48:18;;;;;;;;;;;;;;;18.69;100.00;98631.22;4238650;33;19938;-75
2022/06/13 07:50:45;;;;;;;;;;;;;;;18.91;100.00;98615.97;4239833;33;19937;-76
2022/06/13 07:53:11;;;;;;;;;;;;;;;18.86;100.00;98608.72;4239870;33;19996;-74
2022/06/13 07:55:37;;;;;;;;;;;;;;;18.34;100.00;98616.59;4220635;34;20277;-75
2022/06/13 07:58:04;;;;;;;;;;;;;;;18.31;100.00;98615.28;4223766;34;19977;-75
2022/06/13 08:00:32;;;;;;;;;;;;;;;18.47;100.00;98612.97;4226453;33;19965;-77
2022/06/13 08:03:00;;;;;;;;;;;;;;;18.68;100.00;98617.91;4237592;33;19950;-78
2022/06/13 08:05:28;;;;;;;;;;;;;;;18.55;100.00;98626.97;4238104;33;20299;-78
2022/06/13 08:07:54;;;;;;;;;;;;;;;18.38;100.00;98622.22;4238982;33;19949;-77
2022/06/13 08:10:20;;;;;;;;;;;;;;;18.46;100.00;98616.00;4240214;33;20269;-77
2022/06/13 08:12:47;;;;;;;;;;;;;;;18.32;100.00;98595.09;4237974;33;20291;-77
2022/06/13 08:15:13;;;;;;;;;;;;;;;18.28;100.00;98606.94;4241260;33;19988;-78
2022/06/13 08:17:40;;;;;;;;;;;;;;;18.31;100.00;98619.94;4241354;33;19937;-78
2022/06/13 08:20:07;;;;;;;;;;;;;;;18.70;100.00;98607.50;4241154;33;19951;-77
2022/06/13 08:22:39;;;;;;;;;;;;;;;19.03;100.00;98607.16;4241538;33;19999;-76
2022/06/13 08:25:06;;;;;;;;;;;;;;;19.04;100.00;98606.06;4241810;33;19938;-77
2022/06/13 08:27:32;;;;;;;;;;;;;;;18.98;100.00;98605.38;4241238;33;19937;-77
2022/06/13 08:29:58;;;;;;;;;;;;;;;19.21;100.00;98608.84;4240492;33;19934;-78
2022/06/13 08:32:24;;;;;;;;;;;;;;;19.32;100.00;98608.53;4241107;33;19956;-77
2022/06/13 08:34:50;;;;;;;;;;;;;;;19.52;100.00;98607.91;4239879;33;20332;-76
2022/06/13 08:37:16;;;;;;;;;;;;;;;19.38;100.00;98601.78;4240021;33;19953;-77
2022/06/13 08:39:43;;;;;;;;;;;;;;;19.21;100.00;98602.56;4240362;33;19967;-76
2022/06/13 08:42:16;;;;;;;;;;;;;;;19.23;100.00;98605.78;4239794;33;19943;-76
2022/06/13 08:45:04;;;;;;;;;;;;;;;19.21;100.00;98614.28;4238292;33;19938;-77
2022/06/13 08:47:41;;;;;;;;;;;;;;;19.20;100.00;98620.84;4239442;33;19938;-75
2022/06/13 08:50:15;;;;;;;;;;;;;;;19.29;100.00;98614.63;4239557;33;19938;-75
2022/06/13 08:53:00;;;;;;;;;;;;;;;19.39;100.00;98615.13;4240476;33;19963;-77
2022/06/13 08:55:36;;;;;;;;;;;;;;;19.75;100.00;98621.44;4228915;33;19942;-76
2022/06/13 08:58:22;;;;;;;;;;;;;;;19.95;100.00;98625.50;4238033;33;19948;-75
2022/06/13 09:00:52;;;;;;;;;;;;;;;20.05;100.00;98624.38;4240451;33;19946;-76
2022/06/13 09:03:35;;;;;;;;;;;;;;;20.24;100.00;98626.75;4240538;33;19952;-81
2022/06/13 09:06:21;;;;;;;;;;;;;;;20.23;100.00;98620.50;4228783;33;19945;-82
2022/06/13 09:08:53;;;;;;;;;;;;;;;20.23;100.00;98625.16;4241151;33;19934;-82
2022/06/13 09:11:23;;;;;;;;;;;;;;;20.13;100.00;98620.81;4239780;33;20272;-81
2022/06/13 09:13:57;;;;;;;;;;;;;;;20.09;100.00;98630.81;4240017;33;20207;-82
2022/06/13 09:16:29;;;;;;;;;;;;;;;20.01;100.00;98624.22;4241173;33;19948;-82
2022/06/13 09:19:07;;;;;;;;;;;;;;;19.96;100.00;98625.19;4228460;33;19938;-83
2022/06/13 09:21:33;;;;;;;;;;;;;;;19.94;100.00;98630.16;4241637;33;19960;-83
2022/06/13 09:24:12;;;;;;;;;;;;;;;19.74;100.00;98631.56;4240257;33;19955;-82
2022/06/13 09:26:49;;;;;;;;;;;;;;;19.75;100.00;98624.16;4240261;33;19982;-84
2022/06/13 09:29:15;;;;;;;;;;;;;;;19.81;100.00;98633.03;4241919;33;19963;-83
2022/06/13 09:31:43;;;;;;;;;;;;;;;19.87;100.00;98621.63;4243559;33;20378;-81
2022/06/13 09:34:33;;;;;;;;;;;;;;;20.14;100.00;98614.25;4243793;33;19937;-81
2022/06/13 09:37:11;;;;;;;;;;;;;;;19.92;100.00;98624.19;4242895;33;19954;-81
2022/06/13 09:39:38;;;;;;;;;;;;;;;19.47;100.00;98616.28;4244281;33;20271;-82
2022/06/13 09:42:23;;;;;;;;;;;;;;;19.56;100.00;98614.37;4242279;33;19941;-83
2022/06/13 09:44:49;;;;;;;;;;;;;;;19.58;100.00;98617.56;4230734;33;19934;-80
2022/06/13 09:47:25;;;;;;;;;;;;;;;19.44;100.00;98622.37;4242606;33;19934;-81
2022/06/13 09:50:15;;;;;;;;;;;;;;;19.29;100.00;98623.63;4228776;33;20434;-82
2022/06/13 09:52:59;;;;;;;;;;;;;;;19.12;100.00;98580.72;4242545;33;19989;-81
2022/06/13 09:55:33;;;;;;;;;;;;;;;19.57;100.00;98628.81;4241038;33;19949;-82
2022/06/13 09:58:18;;;;;;;;;;;;;;;19.71;100.00;98625.94;4243285;33;20751;-82
2022/06/13 10:00:56;;;;;;;;;;;;;;;19.38;100.00;98629.09;4242374;33;20001;-83
2022/06/13 10:03:43;;;;;;;;;;;;;;;19.63;100.00;98624.00;4243115;33;19938;-83
2022/06/13 10:06:28;;;;;;;;;;;;;;;19.58;100.00;98639.41;4227028;33;19954;-82
2022/06/13 10:09:01;;;;;;;;;;;;;;;19.12;100.00;98627.09;4242579;33;19934;-81
2022/06/13 10:11:51;;;;;;;;;;;;;;;19.14;100.00;98635.75;4242405;33;19971;-81
2022/06/13 10:14:18;;;;;;;;;;;;;;;18.93;100.00;98623.81;4241679;33;19949;-80
2022/06/13 10:17:03;;;;;;;;;;;;;;;18.78;100.00;98633.19;4244326;33;19950;-81
2022/06/13 10:19:45;;;;;;;;;;;;;;;18.75;100.00;98645.53;4243102;33;19938;-81
2022/06/13 10:22:14;;;;;;;;;;;;;;;18.69;100.00;98653.03;4243527;33;20363;-81
2022/06/13 10:24:59;;;;;;;;;;;;;;;18.47;100.00;98648.41;4243080;33;19963;-81
2022/06/13 10:27:27;;;;;;;;;;;;;;;18.55;100.00;98641.41;4241374;33;19937;-80
2022/06/13 10:30:10;;;;;;;;;;;;;;;18.63;100.00;98648.81;4240999;33;20272;-82
2022/06/13 10:32:48;;;;;;;;;;;;;;;18.61;100.00;98644.81;4243478;33;19952;-82
2022/06/13 10:35:17;;;;;;;;;;;;;;;18.85;100.00;98653.47;4240999;33;19933;-80
2022/06/13 10:37:56;;;;;;;;;;;;;;;18.78;100.00;98660.44;4243263;33;19959;-81
2022/06/13 10:40:23;;;;;;;;;;;;;;;18.60;100.00;98659.56;4241712;33;19946;-82
2022/06/13 10:42:50;;;;;;;;;;;;;;;18.46;100.00;98648.72;4241589;33;20337;-81
2022/06/13 10:45:16;;;;;;;;;;;;;;;18.83;100.00;98641.25;4241102;33;19960;-82
2022/06/13 10:47:55;;;;;;;;;;;;;;;18.98;100.00;98650.97;4243088;33;19957;-82
2022/06/13 10:50:21;;;;;;;;;;;;;;;18.91;100.00;98637.78;4243228;33;19988;-81
2022/06/13 10:52:51;;;;;;;;;;;;;;;18.80;100.00;98620.84;4243238;33;19933;-80
2022/06/13 10:55:21;;;;;;;;;;;;;;;18.96;100.00;98624.00;4241442;33;19951;-80
2022/06/13 10:57:49;;;;;;;;;;;;;;;18.84;100.00;98605.50;4245021;33;20320;-80
2022/06/13 11:00:19;;;;;;;;;;;;;;;18.48;100.00;98673.78;4242369;33;20280;-78
2022/06/13 11:03:08;;;;;;;;;;;;;;;18.15;100.00;98677.53;4241701;33;20310;-79
2022/06/13 11:05:47;;;;;;;;;;;;;;;17.81;100.00;98669.84;4243433;33;19960;-82
2022/06/13 11:08:14;;;;;;;;;;;;;;;17.51;100.00;98663.94;4242964;33;19952;-81
2022/06/13 11:10:41;;;;;;;;;;;;;;;17.13;100.00;98675.03;4240388;33;19949;-80
2022/06/13 11:13:22;;;;;;;;;;;;;;;17.22;100.00;98645.22;4241956;33;19938;-81
2022/06/13 11:24:17;;;;;;;;;;;;;;;17.03;100.00;98648.03;4243201;33;20184;-82
2022/06/13 11:29:37;;;;;;;;;;;;;;;16.64;100.00;98651.97;4240575;33;19942;-84
2022/06/13 11:32:06;;;;;;;;;;;;;;;16.61;100.00;98620.78;4242242;33;19950;-83
2022/06/13 11:34:32;;;;;;;;;;;;;;;16.59;100.00;98628.41;4242435;33;19987;-86
2022/06/13 11:37:02;;;;;;;;;;;;;;;16.48;100.00;98635.13;4240542;33;20293;-82
2022/06/13 11:39:36;;;;;;;;;;;;;;;16.38;100.00;98649.69;4239551;33;19957;-82
2022/06/13 11:42:03;;;;;;;;;;;;;;;16.29;100.00;98641.44;4228459;33;20468;-83
2022/06/13 11:44:31;;;;;;;;;;;;;;;16.07;100.00;98641.25;4241664;33;19944;-82
2022/06/13 11:47:01;;;;;;;;;;;;;;;15.94;100.00;98650.94;4242037;33;19938;-82
2022/06/13 11:49:47;;;;;;;;;;;;;;;15.96;100.00;98652.25;4240483;33;20290;-80
2022/06/13 11:52:13;;;;;;;;;;;;;;;15.61;100.00;98648.91;4241509;33;19952;-83
2022/06/13 11:54:41;;;;;;;;;;;;;;;15.64;100.00;98652.16;4241903;33;19942;-82
2022/06/13 11:57:14;;;;;;;;;;;;;;;15.56;100.00;98657.13;4238397;33;20253;-81
2022/06/13 11:59:47;;;;;;;;;;;;;;;15.36;100.00;98663.59;4228095;33;19966;-83
2022/06/13 12:02:36;;;;;;;;;;;;;;;15.43;100.00;98695.81;4241493;33;19967;-83
2022/06/13 12:05:11;;;;;;;;;;;;;;;15.39;100.00;98700.19;4220948;33;19975;-83
2022/06/13 12:07:37;;;;;;;;;;;;;;;15.41;100.00;98735.97;4240888;33;20279;-84
2022/06/13 12:10:09;;;;;;;;;;;;;;;15.24;100.00;98736.47;4229314;33;19943;-85
2022/06/13 12:12:45;;;;;;;;;;;;;;;15.17;100.00;98736.81;4238769;33;19960;-80
2022/06/13 12:15:13;;;;;;;;;;;;;;;15.02;100.00;98735.03;4241925;33;20295;-81
2022/06/13 12:17:43;;;;;;;;;;;;;;;15.13;100.00;98735.75;4242241;33;19941;-84
2022/06/13 12:20:21;;;;;;;;;;;;;;;15.16;100.00;98746.03;4244355;33;19942;-82
2022/06/13 12:23:00;;;;;;;;;;;;;;;15.19;100.00;98740.03;4243004;33;19963;-86
2022/06/13 12:25:38;;;;;;;;;;;;;;;15.25;100.00;98738.88;4240897;33;20325;-85
2022/06/13 12:28:09;;;;;;;;;;;;;;;15.28;100.00;98739.38;4239784;33;19967;-84
2022/06/13 12:30:35;;;;;;;;;;;;;;;15.32;100.00;98743.97;4241818;33;19933;-85
2022/06/13 12:33:15;;;;;;;;;;;;;;;15.24;100.00;98731.81;4241738;33;20003;-83
2022/06/13 12:35:51;;;;;;;;;;;;;;;15.30;100.00;98739.91;4240728;33;19973;-82
2022/06/13 12:38:38;;;;;;;;;;;;;;;15.19;100.00;98745.44;4241617;33;20438;-82
2022/06/13 12:41:27;;;;;;;;;;;;;;;15.28;100.00;98742.09;4212812;33;20347;-82
2022/06/13 12:44:22;;;;;;;;;;;;;;;15.29;100.00;98739.09;4245186;33;20009;-86
2022/06/13 12:46:49;;;;;;;;;;;;;;;15.24;100.00;98748.09;4191393;33;19970;-82
2022/06/13 12:49:24;;;;;;;;;;;;;;;15.23;100.00;98762.75;4245807;33;19938;-81
2022/06/13 12:51:50;;;;;;;;;;;;;;;15.16;100.00;98762.28;4243820;33;19955;-81
2022/06/13 12:54:35;;;;;;;;;;;;;;;15.10;100.00;98768.06;4242870;33;20279;-82
2022/06/13 12:57:04;;;;;;;;;;;;;;;15.16;100.00;98756.88;4242765;33;20424;-82
2022/06/13 12:59:36;;;;;;;;;;;;;;;15.02;100.00;98755.91;4229927;33;19942;-82
2022/06/13 13:02:03;;;;;;;;;;;;;;;14.86;100.00;98764.19;4242176;33;19938;-81
2022/06/13 13:04:29;;;;;;;;;;;;;;;14.85;100.00;98757.16;4239337;33;19949;-83
2022/06/13 13:07:04;;;;;;;;;;;;;;;14.88;100.00;98762.00;4241206;33;20308;-81
2022/06/13 13:09:42;;;;;;;;;;;;;;;14.87;100.00;98749.53;4241418;33;19951;-81
2022/06/13 13:12:23;;;;;;;;;;;;;;;14.82;100.00;98752.31;4238249;33;19938;-84
2022/06/13 13:14:49;;;;;;;;;;;;;;;14.83;100.00;98753.91;4240192;33;19938;-82
2022/06/13 13:17:15;;;;;;;;;;;;;;;14.88;100.00;98729.47;4238776;33;20355;-83
2022/06/13 13:19:50;;;;;;;;;;;;;;;14.92;100.00;98716.16;4237779;33;19950;-81
2022/06/13 13:22:21;;;;;;;;;;;;;;;14.91;100.00;98713.75;4224544;33;19945;-83
2022/06/13 13:24:53;;;;;;;;;;;;;;;14.94;100.00;98715.88;4238356;33;19937;-81